sensor_id;sensor_type;location;lat;lon;timestamp;pressure;altitude;pressure_sealevel;temperature;humidity
47913;BME280;33676;51.006;17.180;2023-06-19T00:01:13;100095.33;;;15.98;79.26
47913;BME280;33676;51.006;17.180;2023-06-19T00:03:45;100092.83;;;15.95;79.19
47913;BME280;33676;51.006;17.180;2023-06-19T00:06:14;100092.05;;;15.91;79.38
47913;BME280;33676;51.006;17.180;2023-06-19T00:08:43;100091.39;;;15.86;79.25
47913;BME280;33676;51.006;17.180;2023-06-19T00:11:11;100087.38;;;15.82;79.32
47913;BME280;33676;51.006;17.180;2023-06-19T00:13:40;100090.06;;;15.79;79.26
47913;BME280;33676;51.006;17.180;2023-06-19T00:16:09;100084.91;;;15.74;79.26
47913;BME280;33676;51.006;17.180;2023-06-19T00:18:37;100084.86;;;15.70;79.44
47913;BME280;33676;51.006;17.180;2023-06-19T00:21:09;100084.76;;;15.64;79.38
47913;BME280;33676;51.006;17.180;2023-06-19T00:23:37;100083.60;;;15.60;79.49
47913;BME280;33676;51.006;17.180;2023-06-19T00:26:06;100087.39;;;15.55;79.54
47913;BME280;33676;51.006;17.180;2023-06-19T00:28:35;100082.14;;;15.51;79.53
47913;BME280;33676;51.006;17.180;2023-06-19T00:31:12;100078.05;;;15.47;79.50
47913;BME280;33676;51.006;17.180;2023-06-19T00:33:45;100077.15;;;15.42;79.69
47913;BME280;33676;51.006;17.180;2023-06-19T00:36:16;100076.86;;;15.38;79.82
47913;BME280;33676;51.006;17.180;2023-06-19T00:38:49;100077.91;;;15.33;79.84
47913;BME280;33676;51.006;17.180;2023-06-19T00:41:18;100078.46;;;15.27;79.83
47913;BME280;33676;51.006;17.180;2023-06-19T00:43:47;100080.01;;;15.22;79.96
47913;BME280;33676;51.006;17.180;2023-06-19T00:46:15;100078.16;;;15.17;80.26
47913;BME280;33676;51.006;17.180;2023-06-19T00:48:44;100080.48;;;15.14;80.44
47913;BME280;33676;51.006;17.180;2023-06-19T00:51:13;100080.02;;;15.10;80.59
47913;BME280;33676;51.006;17.180;2023-06-19T00:53:41;100078.10;;;15.06;80.76
47913;BME280;33676;51.006;17.180;2023-06-19T00:56:10;100073.84;;;15.01;80.64
47913;BME280;33676;51.006;17.180;2023-06-19T00:58:39;100072.45;;;14.98;80.79
47913;BME280;33676;51.006;17.180;2023-06-19T01:01:07;100071.42;;;14.94;80.83
47913;BME280;33676;51.006;17.180;2023-06-19T01:03:37;100074.59;;;14.90;80.95
47913;BME280;33676;51.006;17.180;2023-06-19T01:06:13;100074.85;;;14.86;81.11
47913;BME280;33676;51.006;17.180;2023-06-19T01:09:01;100066.02;;;14.83;81.36
47913;BME280;33676;51.006;17.180;2023-06-19T01:11:41;100068.52;;;14.79;81.41
47913;BME280;33676;51.006;17.180;2023-06-19T01:14:19;100071.80;;;14.70;81.23
47913;BME280;33676;51.006;17.180;2023-06-19T01:16:49;100076.82;;;14.64;81.36
47913;BME280;33676;51.006;17.180;2023-06-19T01:19:20;100076.65;;;14.61;81.42
47913;BME280;33676;51.006;17.180;2023-06-19T01:21:49;100072.36;;;14.57;81.76
47913;BME280;33676;51.006;17.180;2023-06-19T01:24:18;100071.81;;;14.54;81.79
47913;BME280;33676;51.006;17.180;2023-06-19T01:26:47;100068.30;;;14.51;81.82
47913;BME280;33676;51.006;17.180;2023-06-19T01:29:16;100072.05;;;14.46;82.01
47913;BME280;33676;51.006;17.180;2023-06-19T01:34:21;100069.88;;;14.40;82.27
47913;BME280;33676;51.006;17.180;2023-06-19T01:36:50;100065.75;;;14.37;82.40
47913;BME280;33676;51.006;17.180;2023-06-19T01:39:20;100065.02;;;14.34;82.58
47913;BME280;33676;51.006;17.180;2023-06-19T01:41:49;100066.78;;;14.32;82.53
47913;BME280;33676;51.006;17.180;2023-06-19T01:44:19;100070.62;;;14.30;82.79
47913;BME280;33676;51.006;17.180;2023-06-19T01:46:50;100074.52;;;14.29;82.87
47913;BME280;33676;51.006;17.180;2023-06-19T01:49:19;100076.48;;;14.26;82.95
47913;BME280;33676;51.006;17.180;2023-06-19T01:51:48;100074.02;;;14.24;82.95
47913;BME280;33676;51.006;17.180;2023-06-19T01:54:16;100075.98;;;14.22;83.01
47913;BME280;33676;51.006;17.180;2023-06-19T01:56:45;100078.07;;;14.19;82.98
47913;BME280;33676;51.006;17.180;2023-06-19T01:59:14;100080.73;;;14.15;82.91
47913;BME280;33676;51.006;17.180;2023-06-19T02:01:42;100080.45;;;14.10;83.02
47913;BME280;33676;51.006;17.180;2023-06-19T02:04:11;100080.23;;;14.07;82.98
47913;BME280;33676;51.006;17.180;2023-06-19T02:06:40;100076.86;;;14.04;83.05
47913;BME280;33676;51.006;17.180;2023-06-19T02:09:08;100075.80;;;14.01;83.22
47913;BME280;33676;51.006;17.180;2023-06-19T02:11:37;100074.13;;;13.98;83.31
47913;BME280;33676;51.006;17.180;2023-06-19T02:14:05;100072.49;;;13.95;83.28
47913;BME280;33676;51.006;17.180;2023-06-19T02:16:34;100068.04;;;13.91;83.34
47913;BME280;33676;51.006;17.180;2023-06-19T02:19:03;100067.72;;;13.89;83.45
47913;BME280;33676;51.006;17.180;2023-06-19T02:21:32;100073.61;;;13.86;83.52
47913;BME280;33676;51.006;17.180;2023-06-19T02:24:00;100071.35;;;13.84;83.55
47913;BME280;33676;51.006;17.180;2023-06-19T02:26:29;100075.80;;;13.82;83.72
47913;BME280;33676;51.006;17.180;2023-06-19T02:28:58;100071.41;;;13.80;83.79
47913;BME280;33676;51.006;17.180;2023-06-19T02:31:26;100069.88;;;13.78;83.98
47913;BME280;33676;51.006;17.180;2023-06-19T02:33:55;100070.18;;;13.76;84.04
47913;BME280;33676;51.006;17.180;2023-06-19T02:36:23;100071.83;;;13.74;84.05
47913;BME280;33676;51.006;17.180;2023-06-19T02:38:52;100075.23;;;13.71;84.04
47913;BME280;33676;51.006;17.180;2023-06-19T02:41:21;100073.67;;;13.69;84.25
47913;BME280;33676;51.006;17.180;2023-06-19T02:43:49;100074.45;;;13.66;84.25
47913;BME280;33676;51.006;17.180;2023-06-19T02:46:18;100075.13;;;13.65;84.27
47913;BME280;33676;51.006;17.180;2023-06-19T02:48:47;100076.97;;;13.62;84.48
47913;BME280;33676;51.006;17.180;2023-06-19T02:51:15;100074.92;;;13.60;84.41
47913;BME280;33676;51.006;17.180;2023-06-19T02:53:44;100078.48;;;13.57;84.73
47913;BME280;33676;51.006;17.180;2023-06-19T02:56:12;100077.07;;;13.56;84.70
47913;BME280;33676;51.006;17.180;2023-06-19T02:58:41;100081.10;;;13.54;84.74
47913;BME280;33676;51.006;17.180;2023-06-19T03:01:10;100080.54;;;13.52;84.86
47913;BME280;33676;51.006;17.180;2023-06-19T03:03:38;100084.90;;;13.53;84.94
47913;BME280;33676;51.006;17.180;2023-06-19T03:06:09;100084.37;;;13.53;85.25
47913;BME280;33676;51.006;17.180;2023-06-19T03:08:37;100087.86;;;13.53;85.44
47913;BME280;33676;51.006;17.180;2023-06-19T03:11:06;100088.77;;;13.54;85.55
47913;BME280;33676;51.006;17.180;2023-06-19T03:14:04;100096.93;;;13.55;85.68
47913;BME280;33676;51.006;17.180;2023-06-19T03:16:36;100103.64;;;13.57;85.88
47913;BME280;33676;51.006;17.180;2023-06-19T03:19:04;100103.48;;;13.58;86.07
47913;BME280;33676;51.006;17.180;2023-06-19T03:21:33;100102.96;;;13.61;86.23
47913;BME280;33676;51.006;17.180;2023-06-19T03:24:04;100099.38;;;13.63;86.32
47913;BME280;33676;51.006;17.180;2023-06-19T03:26:32;100100.28;;;13.65;86.32
47913;BME280;33676;51.006;17.180;2023-06-19T03:29:02;100094.18;;;13.66;86.46
47913;BME280;33676;51.006;17.180;2023-06-19T03:31:30;100092.45;;;13.68;86.48
47913;BME280;33676;51.006;17.180;2023-06-19T03:34:00;100090.31;;;13.70;86.52
47913;BME280;33676;51.006;17.180;2023-06-19T03:36:29;100086.70;;;13.73;86.71
47913;BME280;33676;51.006;17.180;2023-06-19T03:38:58;100088.58;;;13.77;86.84
47913;BME280;33676;51.006;17.180;2023-06-19T03:41:26;100081.38;;;13.80;86.96
47913;BME280;33676;51.006;17.180;2023-06-19T03:43:55;100080.89;;;13.86;87.11
47913;BME280;33676;51.006;17.180;2023-06-19T03:46:23;100080.06;;;13.91;87.21
47913;BME280;33676;51.006;17.180;2023-06-19T03:48:52;100079.98;;;13.98;87.49
47913;BME280;33676;51.006;17.180;2023-06-19T03:51:22;100079.58;;;14.03;87.52
47913;BME280;33676;51.006;17.180;2023-06-19T03:53:50;100081.24;;;14.11;88.04
47913;BME280;33676;51.006;17.180;2023-06-19T03:56:19;100079.36;;;14.20;88.09
47913;BME280;33676;51.006;17.180;2023-06-19T03:58:47;100077.92;;;14.29;88.28
47913;BME280;33676;51.006;17.180;2023-06-19T04:01:16;100076.30;;;14.39;88.50
47913;BME280;33676;51.006;17.180;2023-06-19T04:03:45;100079.89;;;14.51;88.70
47913;BME280;33676;51.006;17.180;2023-06-19T04:06:14;100076.15;;;14.64;89.00
47913;BME280;33676;51.006;17.180;2023-06-19T04:08:43;100078.81;;;14.78;89.10
47913;BME280;33676;51.006;17.180;2023-06-19T04:11:11;100084.77;;;14.92;89.39
47913;BME280;33676;51.006;17.180;2023-06-19T04:13:40;100088.89;;;15.07;89.63
47913;BME280;33676;51.006;17.180;2023-06-19T04:16:09;100087.73;;;15.22;89.72
47913;BME280;33676;51.006;17.180;2023-06-19T04:18:38;100089.23;;;15.37;89.71
47913;BME280;33676;51.006;17.180;2023-06-19T04:21:07;100086.71;;;15.53;90.17
47913;BME280;33676;51.006;17.180;2023-06-19T04:23:35;100084.66;;;15.70;90.38
47913;BME280;33676;51.006;17.180;2023-06-19T04:26:04;100083.44;;;15.87;90.66
47913;BME280;33676;51.006;17.180;2023-06-19T04:28:33;100087.75;;;16.05;90.82
47913;BME280;33676;51.006;17.180;2023-06-19T04:31:01;100090.56;;;16.21;90.92
47913;BME280;33676;51.006;17.180;2023-06-19T04:33:30;100085.51;;;16.39;91.15
47913;BME280;33676;51.006;17.180;2023-06-19T04:35:59;100087.70;;;16.57;91.19
47913;BME280;33676;51.006;17.180;2023-06-19T04:38:27;100090.34;;;16.74;91.22
47913;BME280;33676;51.006;17.180;2023-06-19T04:41:17;100086.80;;;16.92;91.20
47913;BME280;33676;51.006;17.180;2023-06-19T04:43:45;100089.33;;;17.06;91.41
47913;BME280;33676;51.006;17.180;2023-06-19T04:46:14;100089.04;;;17.20;91.31
47913;BME280;33676;51.006;17.180;2023-06-19T04:48:49;100089.65;;;17.34;91.11
47913;BME280;33676;51.006;17.180;2023-06-19T04:51:19;100090.33;;;17.47;91.22
47913;BME280;33676;51.006;17.180;2023-06-19T04:53:49;100088.10;;;17.59;90.95
47913;BME280;33676;51.006;17.180;2023-06-19T04:56:17;100093.58;;;17.70;90.78
47913;BME280;33676;51.006;17.180;2023-06-19T04:58:46;100095.98;;;17.80;90.82
47913;BME280;33676;51.006;17.180;2023-06-19T05:01:15;100094.48;;;17.91;90.92
47913;BME280;33676;51.006;17.180;2023-06-19T05:03:46;100096.88;;;17.99;90.73
47913;BME280;33676;51.006;17.180;2023-06-19T05:06:14;100096.31;;;18.07;90.64
47913;BME280;33676;51.006;17.180;2023-06-19T05:08:43;100097.82;;;18.14;90.54
47913;BME280;33676;51.006;17.180;2023-06-19T05:11:11;100102.52;;;18.20;90.19
47913;BME280;33676;51.006;17.180;2023-06-19T05:13:40;100109.19;;;18.25;90.10
47913;BME280;33676;51.006;17.180;2023-06-19T05:16:09;100108.27;;;18.30;90.03
47913;BME280;33676;51.006;17.180;2023-06-19T05:18:38;100110.20;;;18.36;89.99
47913;BME280;33676;51.006;17.180;2023-06-19T05:21:06;100111.23;;;18.42;89.98
47913;BME280;33676;51.006;17.180;2023-06-19T05:23:35;100109.64;;;18.48;89.86
47913;BME280;33676;51.006;17.180;2023-06-19T05:26:04;100108.25;;;18.55;89.80
47913;BME280;33676;51.006;17.180;2023-06-19T05:28:32;100109.80;;;18.61;89.80
47913;BME280;33676;51.006;17.180;2023-06-19T05:31:01;100113.77;;;18.70;89.71
47913;BME280;33676;51.006;17.180;2023-06-19T05:33:29;100120.48;;;18.79;89.70
47913;BME280;33676;51.006;17.180;2023-06-19T05:35:58;100125.08;;;18.89;89.67
47913;BME280;33676;51.006;17.180;2023-06-19T05:38:27;100131.66;;;18.97;89.50
47913;BME280;33676;51.006;17.180;2023-06-19T05:40:57;100134.48;;;19.07;89.44
47913;BME280;33676;51.006;17.180;2023-06-19T05:43:26;100134.77;;;19.18;89.56
47913;BME280;33676;51.006;17.180;2023-06-19T05:45:55;100141.75;;;19.31;89.54
47913;BME280;33676;51.006;17.180;2023-06-19T05:48:31;100141.18;;;19.43;89.57
47913;BME280;33676;51.006;17.180;2023-06-19T05:50:59;100140.55;;;19.58;89.81
47913;BME280;33676;51.006;17.180;2023-06-19T05:53:28;100145.96;;;19.66;90.17
47913;BME280;33676;51.006;17.180;2023-06-19T05:55:56;100146.92;;;19.70;90.34
47913;BME280;33676;51.006;17.180;2023-06-19T05:58:26;100146.96;;;19.83;90.64
47913;BME280;33676;51.006;17.180;2023-06-19T06:08:41;100148.05;;;20.66;90.87
47913;BME280;33676;51.006;17.180;2023-06-19T06:11:10;100144.45;;;20.88;90.54
47913;BME280;33676;51.006;17.180;2023-06-19T06:13:38;100149.65;;;21.03;89.95
47913;BME280;33676;51.006;17.180;2023-06-19T06:16:07;100152.63;;;21.13;89.22
47913;BME280;33676;51.006;17.180;2023-06-19T06:18:36;100155.05;;;21.30;89.27
47913;BME280;33676;51.006;17.180;2023-06-19T06:21:06;100157.61;;;21.46;88.79
47913;BME280;33676;51.006;17.180;2023-06-19T06:23:35;100159.54;;;21.67;88.44
47913;BME280;33676;51.006;17.180;2023-06-19T06:26:03;100164.95;;;21.92;88.33
47913;BME280;33676;51.006;17.180;2023-06-19T06:28:33;100169.14;;;22.13;88.13
47913;BME280;33676;51.006;17.180;2023-06-19T06:31:01;100167.34;;;22.34;88.09
47913;BME280;33676;51.006;17.180;2023-06-19T06:33:30;100167.79;;;22.52;87.61
47913;BME280;33676;51.006;17.180;2023-06-19T06:35:59;100166.45;;;22.67;87.34
47913;BME280;33676;51.006;17.180;2023-06-19T06:38:28;100165.80;;;22.77;86.79
47913;BME280;33676;51.006;17.180;2023-06-19T06:40:56;100169.83;;;22.92;86.73
47913;BME280;33676;51.006;17.180;2023-06-19T06:43:25;100171.10;;;23.08;86.82
47913;BME280;33676;51.006;17.180;2023-06-19T06:45:53;100173.22;;;23.21;86.29
47913;BME280;33676;51.006;17.180;2023-06-19T06:48:24;100181.67;;;23.36;86.16
47913;BME280;33676;51.006;17.180;2023-06-19T06:50:53;100183.68;;;23.49;85.31
47913;BME280;33676;51.006;17.180;2023-06-19T06:53:28;100190.67;;;23.59;84.68
47913;BME280;33676;51.006;17.180;2023-06-19T06:55:58;100196.45;;;23.51;82.87
47913;BME280;33676;51.006;17.180;2023-06-19T06:58:28;100194.97;;;23.35;82.86
47913;BME280;33676;51.006;17.180;2023-06-19T07:00:57;100192.50;;;23.34;83.21
47913;BME280;33676;51.006;17.180;2023-06-19T07:03:25;100192.96;;;23.33;83.20
47913;BME280;33676;51.006;17.180;2023-06-19T07:05:54;100191.06;;;23.35;83.30
47913;BME280;33676;51.006;17.180;2023-06-19T07:08:22;100194.94;;;23.38;83.13
47913;BME280;33676;51.006;17.180;2023-06-19T07:10:51;100196.70;;;23.37;82.97
47913;BME280;33676;51.006;17.180;2023-06-19T07:13:20;100194.59;;;23.44;83.18
47913;BME280;33676;51.006;17.180;2023-06-19T07:15:49;100192.23;;;23.63;83.72
47913;BME280;33676;51.006;17.180;2023-06-19T07:18:18;100193.14;;;23.83;83.78
47913;BME280;33676;51.006;17.180;2023-06-19T07:20:46;100191.36;;;24.02;83.50
47913;BME280;33676;51.006;17.180;2023-06-19T07:23:15;100189.69;;;24.21;83.23
47913;BME280;33676;51.006;17.180;2023-06-19T07:25:46;100187.48;;;24.43;83.24
47913;BME280;33676;51.006;17.180;2023-06-19T07:28:15;100184.91;;;24.65;83.39
47913;BME280;33676;51.006;17.180;2023-06-19T07:30:43;100185.25;;;24.83;82.85
47913;BME280;33676;51.006;17.180;2023-06-19T07:33:13;100191.10;;;25.01;82.64
47913;BME280;33676;51.006;17.180;2023-06-19T07:35:42;100191.33;;;25.17;82.18
47913;BME280;33676;51.006;17.180;2023-06-19T07:38:10;100184.70;;;25.32;82.06
47913;BME280;33676;51.006;17.180;2023-06-19T07:40:39;100185.66;;;25.51;82.11
47913;BME280;33676;51.006;17.180;2023-06-19T07:43:07;100187.55;;;25.68;81.72
47913;BME280;33676;51.006;17.180;2023-06-19T07:45:36;100188.27;;;25.87;81.71
47913;BME280;33676;51.006;17.180;2023-06-19T07:48:05;100190.48;;;26.07;81.58
47913;BME280;33676;51.006;17.180;2023-06-19T07:50:33;100193.08;;;26.25;81.33
47913;BME280;33676;51.006;17.180;2023-06-19T07:53:02;100195.00;;;26.23;78.85
47913;BME280;33676;51.006;17.180;2023-06-19T07:55:30;100192.69;;;26.00;78.07
47913;BME280;33676;51.006;17.180;2023-06-19T07:57:59;100193.85;;;25.92;78.16
47913;BME280;33676;51.006;17.180;2023-06-19T08:00:27;100191.96;;;25.89;78.30
47913;BME280;33676;51.006;17.180;2023-06-19T08:02:56;100191.21;;;25.90;78.47
47913;BME280;33676;51.006;17.180;2023-06-19T08:05:25;100189.17;;;25.92;78.29
47913;BME280;33676;51.006;17.180;2023-06-19T08:07:53;100190.99;;;25.92;78.18
47913;BME280;33676;51.006;17.180;2023-06-19T08:10:22;100184.89;;;25.91;78.14
47913;BME280;33676;51.006;17.180;2023-06-19T08:12:51;100188.52;;;26.05;78.43
47913;BME280;33676;51.006;17.180;2023-06-19T08:15:21;100189.02;;;26.25;78.60
47913;BME280;33676;51.006;17.180;2023-06-19T08:17:50;100186.67;;;26.45;78.59
47913;BME280;33676;51.006;17.180;2023-06-19T08:20:18;100184.73;;;26.66;78.49
47913;BME280;33676;51.006;17.180;2023-06-19T08:22:48;100187.10;;;26.82;77.94
47913;BME280;33676;51.006;17.180;2023-06-19T08:25:16;100184.96;;;26.99;77.81
47913;BME280;33676;51.006;17.180;2023-06-19T08:27:45;100187.84;;;27.19;77.29
47913;BME280;33676;51.006;17.180;2023-06-19T08:30:14;100186.54;;;27.33;77.12
47913;BME280;33676;51.006;17.180;2023-06-19T08:32:46;100183.63;;;27.51;77.08
47913;BME280;33676;51.006;17.180;2023-06-19T08:35:15;100181.13;;;27.65;76.99
47913;BME280;33676;51.006;17.180;2023-06-19T08:37:46;100180.44;;;27.77;76.26
47913;BME280;33676;51.006;17.180;2023-06-19T08:40:15;100174.23;;;27.86;76.16
47913;BME280;33676;51.006;17.180;2023-06-19T08:42:43;100172.52;;;27.95;75.81
47913;BME280;33676;51.006;17.180;2023-06-19T08:45:12;100173.80;;;28.02;75.36
47913;BME280;33676;51.006;17.180;2023-06-19T08:47:41;100174.84;;;28.06;74.33
47913;BME280;33676;51.006;17.180;2023-06-19T08:50:09;100169.05;;;27.76;73.14
47913;BME280;33676;51.006;17.180;2023-06-19T08:52:38;100166.98;;;27.58;73.92
47913;BME280;33676;51.006;17.180;2023-06-19T08:55:08;100161.65;;;27.55;74.18
47913;BME280;33676;51.006;17.180;2023-06-19T08:57:40;100165.48;;;27.57;74.29
47913;BME280;33676;51.006;17.180;2023-06-19T09:00:09;100162.48;;;27.60;74.14
47913;BME280;33676;51.006;17.180;2023-06-19T09:02:45;100164.45;;;27.64;73.83
47913;BME280;33676;51.006;17.180;2023-06-19T09:05:32;100165.50;;;27.63;73.16
47913;BME280;33676;51.006;17.180;2023-06-19T09:08:01;100168.86;;;27.59;73.46
47913;BME280;33676;51.006;17.180;2023-06-19T09:10:30;100167.48;;;27.71;73.95
47913;BME280;33676;51.006;17.180;2023-06-19T09:13:00;100167.44;;;27.83;73.61
47913;BME280;33676;51.006;17.180;2023-06-19T09:15:37;100165.98;;;27.92;73.18
47913;BME280;33676;51.006;17.180;2023-06-19T09:18:09;100167.36;;;28.01;72.51
47913;BME280;33676;51.006;17.180;2023-06-19T09:20:42;100167.70;;;28.15;72.62
47913;BME280;33676;51.006;17.180;2023-06-19T09:23:17;100164.92;;;28.30;72.52
47913;BME280;33676;51.006;17.180;2023-06-19T09:25:51;100160.57;;;28.52;73.03
47913;BME280;33676;51.006;17.180;2023-06-19T09:28:27;100158.23;;;28.82;73.48
47913;BME280;33676;51.006;17.180;2023-06-19T09:31:02;100156.68;;;29.03;72.69
47913;BME280;33676;51.006;17.180;2023-06-19T09:33:34;100160.66;;;29.19;72.69
47913;BME280;33676;51.006;17.180;2023-06-19T09:36:05;100166.29;;;29.35;72.30
47913;BME280;33676;51.006;17.180;2023-06-19T09:38:39;100163.11;;;29.51;71.71
47913;BME280;33676;51.006;17.180;2023-06-19T09:41:09;100158.54;;;29.71;70.84
47913;BME280;33676;51.006;17.180;2023-06-19T09:43:43;100156.29;;;29.73;69.92
47913;BME280;33676;51.006;17.180;2023-06-19T09:46:14;100156.48;;;29.86;70.55
47913;BME280;33676;51.006;17.180;2023-06-19T09:48:45;100152.58;;;30.11;70.46
47913;BME280;33676;51.006;17.180;2023-06-19T09:51:22;100149.23;;;30.29;69.61
47913;BME280;33676;51.006;17.180;2023-06-19T09:53:51;100150.30;;;30.46;68.51
47913;BME280;33676;51.006;17.180;2023-06-19T09:56:23;100149.85;;;30.61;67.94
47913;BME280;33676;51.006;17.180;2023-06-19T09:58:57;100143.95;;;30.84;66.96
47913;BME280;33676;51.006;17.180;2023-06-19T10:01:30;100141.45;;;30.99;65.60
47913;BME280;33676;51.006;17.180;2023-06-19T10:04:07;100137.59;;;31.02;65.16
47913;BME280;33676;51.006;17.180;2023-06-19T10:06:46;100137.09;;;31.19;66.00
47913;BME280;33676;51.006;17.180;2023-06-19T10:09:15;100138.24;;;31.49;66.16
47913;BME280;33676;51.006;17.180;2023-06-19T10:11:50;100137.46;;;31.78;65.96
47913;BME280;33676;51.006;17.180;2023-06-19T10:14:22;100137.80;;;31.99;64.82
47913;BME280;33676;51.006;17.180;2023-06-19T10:16:51;100139.45;;;32.13;64.46
47913;BME280;33676;51.006;17.180;2023-06-19T10:19:22;100137.72;;;32.40;64.74
47913;BME280;33676;51.006;17.180;2023-06-19T10:21:54;100136.73;;;32.71;64.56
47913;BME280;33676;51.006;17.180;2023-06-19T10:24:30;100133.56;;;32.98;64.61
47913;BME280;33676;51.006;17.180;2023-06-19T10:27:02;100131.84;;;33.27;64.19
47913;BME280;33676;51.006;17.180;2023-06-19T10:29:41;100134.42;;;33.53;63.90
47913;BME280;33676;51.006;17.180;2023-06-19T10:32:20;100128.38;;;33.83;63.54
47913;BME280;33676;51.006;17.180;2023-06-19T10:34:49;100133.31;;;33.94;60.55
47913;BME280;33676;51.006;17.180;2023-06-19T10:37:18;100134.59;;;33.56;58.35
47913;BME280;33676;51.006;17.180;2023-06-19T10:40:02;100133.09;;;33.28;56.85
47913;BME280;33676;51.006;17.180;2023-06-19T10:42:31;100128.25;;;33.17;56.07
47913;BME280;33676;51.006;17.180;2023-06-19T10:45:05;100126.79;;;33.14;55.51
47913;BME280;33676;51.006;17.180;2023-06-19T10:47:35;100124.70;;;32.99;55.55
47913;BME280;33676;51.006;17.180;2023-06-19T10:50:12;100124.60;;;33.09;56.26
47913;BME280;33676;51.006;17.180;2023-06-19T10:52:45;100124.81;;;33.32;56.66
47913;BME280;33676;51.006;17.180;2023-06-19T10:55:15;100128.66;;;33.59;56.23
47913;BME280;33676;51.006;17.180;2023-06-19T10:57:45;100124.86;;;33.78;56.01
47913;BME280;33676;51.006;17.180;2023-06-19T11:00:29;100121.98;;;34.14;56.75
47913;BME280;33676;51.006;17.180;2023-06-19T11:02:58;100118.87;;;34.67;56.98
47913;BME280;33676;51.006;17.180;2023-06-19T11:05:28;100120.66;;;35.13;56.34
47913;BME280;33676;51.006;17.180;2023-06-19T11:07:58;100116.84;;;35.50;55.94
47913;BME280;33676;51.006;17.180;2023-06-19T11:10:29;100115.58;;;35.88;55.23
47913;BME280;33676;51.006;17.180;2023-06-19T11:12:59;100118.87;;;36.24;53.86
47913;BME280;33676;51.006;17.180;2023-06-19T11:15:33;100119.47;;;36.15;51.18
47913;BME280;33676;51.006;17.180;2023-06-19T11:18:02;100118.22;;;35.92;49.97
47913;BME280;33676;51.006;17.180;2023-06-19T11:20:51;100114.51;;;35.56;49.44
47913;BME280;33676;51.006;17.180;2023-06-19T11:23:29;100114.23;;;35.28;49.45
47913;BME280;33676;51.006;17.180;2023-06-19T11:26:05;100110.13;;;34.95;49.40
47913;BME280;33676;51.006;17.180;2023-06-19T11:28:34;100107.25;;;34.87;50.46
47913;BME280;33676;51.006;17.180;2023-06-19T11:31:06;100108.67;;;35.15;51.38
47913;BME280;33676;51.006;17.180;2023-06-19T11:33:35;100103.70;;;35.34;51.09
47913;BME280;33676;51.006;17.180;2023-06-19T11:36:05;100105.52;;;35.49;50.82
47913;BME280;33676;51.006;17.180;2023-06-19T11:38:35;100107.23;;;35.74;50.74
47913;BME280;33676;51.006;17.180;2023-06-19T11:41:04;100102.41;;;36.07;50.79
47913;BME280;33676;51.006;17.180;2023-06-19T11:43:34;100103.31;;;36.36;50.61
47913;BME280;33676;51.006;17.180;2023-06-19T11:46:18;100104.04;;;36.61;50.44
47913;BME280;33676;51.006;17.180;2023-06-19T11:48:50;100098.52;;;36.89;50.19
47913;BME280;33676;51.006;17.180;2023-06-19T11:51:35;100098.30;;;37.03;47.93
47913;BME280;33676;51.006;17.180;2023-06-19T11:54:11;100102.45;;;36.61;46.98
47913;BME280;33676;51.006;17.180;2023-06-19T11:56:41;100098.64;;;36.03;46.33
47913;BME280;33676;51.006;17.180;2023-06-19T11:59:10;100100.61;;;35.50;46.16
47913;BME280;33676;51.006;17.180;2023-06-19T12:01:38;100098.45;;;35.19;46.76
47913;BME280;33676;51.006;17.180;2023-06-19T12:04:07;100097.35;;;35.32;47.63
47913;BME280;33676;51.006;17.180;2023-06-19T12:06:36;100096.66;;;35.84;48.80
47913;BME280;33676;51.006;17.180;2023-06-19T12:09:05;100097.30;;;36.35;48.91
47913;BME280;33676;51.006;17.180;2023-06-19T12:11:34;100096.16;;;36.53;47.98
47913;BME280;33676;51.006;17.180;2023-06-19T12:14:02;100098.10;;;36.63;47.70
47913;BME280;33676;51.006;17.180;2023-06-19T12:16:31;100092.13;;;36.80;47.85
47913;BME280;33676;51.006;17.180;2023-06-19T12:19:00;100090.02;;;36.95;47.89
47913;BME280;33676;51.006;17.180;2023-06-19T12:21:28;100082.88;;;37.13;47.59
47913;BME280;33676;51.006;17.180;2023-06-19T12:24:06;100089.11;;;36.80;45.84
47913;BME280;33676;51.006;17.180;2023-06-19T12:26:36;100090.24;;;36.14;45.33
47913;BME280;33676;51.006;17.180;2023-06-19T12:29:06;100088.92;;;35.50;45.86
47913;BME280;33676;51.006;17.180;2023-06-19T12:31:35;100087.57;;;35.08;46.58
47913;BME280;33676;51.006;17.180;2023-06-19T12:34:07;100085.73;;;34.79;46.86
47913;BME280;33676;51.006;17.180;2023-06-19T12:36:39;100088.80;;;34.51;46.97
47913;BME280;33676;51.006;17.180;2023-06-19T12:39:07;100093.23;;;34.38;47.40
47913;BME280;33676;51.006;17.180;2023-06-19T12:41:43;100090.38;;;34.34;48.26
47913;BME280;33676;51.006;17.180;2023-06-19T12:44:11;100088.21;;;34.31;48.48
47913;BME280;33676;51.006;17.180;2023-06-19T12:46:40;100084.96;;;34.28;48.31
47913;BME280;33676;51.006;17.180;2023-06-19T12:49:09;100080.09;;;34.21;48.02
47913;BME280;33676;51.006;17.180;2023-06-19T12:51:38;100074.93;;;34.29;48.64
47913;BME280;33676;51.006;17.180;2023-06-19T12:54:06;100073.42;;;34.71;49.22
47913;BME280;33676;51.006;17.180;2023-06-19T12:56:35;100074.39;;;35.24;49.53
47913;BME280;33676;51.006;17.180;2023-06-19T12:59:04;100070.02;;;35.73;49.57
47913;BME280;33676;51.006;17.180;2023-06-19T13:01:32;100069.33;;;36.11;49.18
47913;BME280;33676;51.006;17.180;2023-06-19T13:04:01;100067.94;;;36.49;49.19
47913;BME280;33676;51.006;17.180;2023-06-19T13:06:30;100067.02;;;36.78;49.21